Time;durP1;ratioP1;P1;durP2;ratioP2;P2;SDS_P1;SDS_P2;PMS_P1;PMS_P2;Temp;Humidity;BMP_temperature;BMP_pressure;BME280_temperature;BME280_humidity;BME280_pressure;Samples;Min_cycle;Max_cycle;Signal;HPM_P1;HPM_P2
2022/03/29 07:40:45;;;;;;;30.83;9.52;;;;;;;10.39;53.03;100899.50;5052288;23;121692;-90
2022/03/29 07:43:39;;;;;;;25.75;6.18;;;;;;;10.31;53.20;100865.31;4914742;23;119889;-91
2022/03/29 07:46:07;;;;;;;30.45;6.13;;;;;;;10.18;53.91;100844.63;4816530;28;122092;-91
2022/03/29 07:48:37;;;;;;;24.45;7.00;;;;;;;10.29;52.86;100845.81;4827664;28;122740;-91
2022/03/29 07:51:05;;;;;;;22.20;4.90;;;;;;;10.50;51.80;100876.47;4823362;28;118470;-90
2022/03/29 07:53:58;;;;;;;23.30;5.20;;;;;;;10.50;52.11;100868.22;4921277;23;120839;-89
2022/03/29 07:56:24;;;;;;;26.52;4.68;;;;;;;10.66;52.08;100879.03;4815655;28;122932;-89
2022/03/29 07:58:49;;;;;;;24.73;5.18;;;;;;;10.66;52.22;100862.56;4820603;28;119616;-89
2022/03/29 08:01:15;;;;;;;25.02;4.70;;;;;;;10.68;51.45;100862.91;4824346;28;121010;-91
2022/03/29 08:03:45;;;;;;;27.88;5.10;;;;;;;10.46;50.89;100819.00;4838131;28;119456;-89
2022/03/29 08:06:18;;;;;;;23.75;5.00;;;;;;;10.67;51.15;100831.94;4825831;28;120912;-89
2022/03/29 08:08:46;;;;;;;21.23;4.30;;;;;;;10.94;51.17;100853.31;4823233;28;123073;-89
2022/03/29 08:11:16;;;;;;;26.17;4.43;;;;;;;10.71;50.92;100812.63;4837929;28;119713;-93
2022/03/29 08:13:50;;;;;;;23.20;4.60;;;;;;;11.14;49.98;100876.91;4820305;28;122121;-92
2022/03/29 08:16:16;;;;;;;24.00;4.15;;;;;;;10.94;49.75;100820.38;4819662;28;122896;-91
2022/03/29 08:18:44;;;;;;;20.20;4.20;;;;;;;11.31;48.67;100862.50;4821893;28;120076;-91
2022/03/29 08:24:00;;;;;;;23.95;5.05;;;;;;;10.93;48.01;100810.63;4842219;28;122860;-91
2022/03/29 08:26:28;;;;;;;19.83;3.42;;;;;;;11.07;47.31;100843.00;4822708;28;121646;-90
2022/03/29 08:28:57;;;;;;;16.15;3.28;;;;;;;10.93;46.63;100810.63;4820091;28;122833;-91
2022/03/29 08:31:25;;;;;;;22.70;4.07;;;;;;;11.25;46.98;100856.06;4850958;28;119570;-93
2022/03/29 08:33:54;;;;;;;22.55;4.00;;;;;;;11.16;47.39;100828.56;4828773;28;122053;-91
2022/03/29 08:36:20;;;;;;;24.92;7.38;;;;;;;11.53;47.62;100862.44;4826276;28;122569;-92
2022/03/29 08:38:45;;;;;;;20.13;3.83;;;;;;;11.41;48.97;100833.09;4840539;28;119953;-90
2022/03/29 08:41:11;;;;;;;21.88;5.45;;;;;;;11.44;48.11;100825.94;4825925;28;120876;-90
2022/03/29 08:43:37;;;;;;;23.85;4.20;;;;;;;11.60;48.03;100834.72;4837997;28;120012;-89
2022/03/29 08:46:03;;;;;;;20.45;3.67;;;;;;;11.61;47.07;100827.22;4843888;28;119733;-91
2022/03/29 08:48:30;;;;;;;16.75;3.10;;;;;;;11.59;47.90;100824.94;4823026;28;121929;-93
2022/03/29 08:51:00;;;;;;;30.08;8.80;;;;;;;11.53;46.72;100817.72;4824115;28;121026;-90
2022/03/29 08:53:50;;;;;;;;;;;;;;;;;;;;;
2022/03/29 08:56:27;;;;;;;19.77;4.45;;;;;;;11.78;45.51;100834.00;4839786;28;123009;-92
2022/03/29 08:59:13;;;;;;;15.13;3.90;;;;;;;11.56;45.66;100779.13;4830246;28;122361;-91
2022/03/29 09:01:57;;;;;;;;;;;;;;;;;;;;;
2022/03/29 09:04:29;;;;;;;12.48;3.10;;;;;;;12.02;45.73;100817.69;4835717;28;123252;-91
2022/03/29 09:07:17;;;;;;;18.95;3.95;;;;;;;11.94;44.31;100795.25;4834543;28;120007;-90
2022/03/29 09:09:45;;;;;;;17.23;3.15;;;;;;;12.01;44.41;100796.94;4839778;28;122932;-92
2022/03/29 09:12:13;;;;;;;17.98;3.28;;;;;;;12.35;45.24;100826.13;4839778;28;119941;-92
2022/03/29 09:14:54;;;;;;;15.80;3.97;;;;;;;12.47;46.49;100827.19;4839220;28;121982;-90
2022/03/29 09:17:34;;;;;;;13.68;3.28;;;;;;;12.54;42.50;100837.91;4820967;28;122156;-91
2022/03/29 09:20:21;;;;;;;12.68;3.22;;;;;;;12.22;41.22;100801.53;4811983;28;121263;-91
2022/03/29 09:22:52;;;;;;;14.38;2.78;;;;;;;12.46;40.27;100822.91;4839494;28;120784;-91
2022/03/29 09:25:21;;;;;;;17.40;3.42;;;;;;;12.50;41.02;100818.00;4836132;28;123196;-90
2022/03/29 09:27:55;;;;;;;18.77;3.50;;;;;;;12.23;42.62;100781.03;4849703;28;119870;-90
2022/03/29 09:30:26;;;;;;;15.95;3.53;;;;;;;12.47;43.24;100785.91;4825334;28;121719;-91
2022/03/29 09:33:06;;;;;;;15.57;3.25;;;;;;;12.66;41.88;100805.94;4827271;28;120128;-91
2022/03/29 09:35:52;;;;;;;23.70;5.18;;;;;;;12.31;41.36;100753.25;4841288;28;119779;-91
2022/03/29 09:38:25;;;;;;;14.30;2.95;;;;;;;12.75;41.56;100825.94;4823530;28;123232;-92
2022/03/29 09:40:57;;;;;;;19.25;4.10;;;;;;;12.73;41.60;100822.13;4837362;28;119799;-91
2022/03/29 09:43:42;;;;;;;15.18;3.10;;;;;;;12.47;40.77;100788.66;4839934;28;122312;-92
2022/03/29 09:46:13;;;;;;;14.18;3.30;;;;;;;12.18;41.40;100751.41;4825388;28;122889;-91
2022/03/29 09:48:44;;;;;;;15.18;3.00;;;;;;;12.56;40.83;100810.69;4825745;28;119784;-91
2022/03/29 09:51:27;;;;;;;22.05;3.28;;;;;;;12.15;41.32;100740.59;4826440;28;122466;-91
2022/03/29 09:53:55;;;;;;;15.07;3.03;;;;;;;12.28;40.55;100771.41;4845968;28;121987;-90
2022/03/29 09:56:28;;;;;;;14.48;3.13;;;;;;;12.24;41.41;100757.81;4820169;28;122168;-91
2022/03/29 09:59:15;;;;;;;17.77;2.90;;;;;;;12.31;42.22;100762.28;4842806;28;123229;-90
2022/03/29 10:01:52;;;;;;;13.98;3.25;;;;;;;12.72;42.08;100810.34;4840687;28;120176;-90
2022/03/29 10:04:19;;;;;;;12.30;2.88;;;;;;;12.54;41.68;100778.13;4822849;28;122134;-91
2022/03/29 10:06:54;;;;;;;8.70;2.30;;;;;;;12.28;40.20;100730.94;4839660;28;122739;-91
2022/03/29 10:09:35;;;;;;;11.02;2.70;;;;;;;12.40;40.76;100756.75;4822481;28;120052;-92
2022/03/29 10:12:09;;;;;;;12.07;2.67;;;;;;;12.77;40.59;100798.69;4837881;28;121896;-92
2022/03/29 10:14:41;;;;;;;12.10;2.83;;;;;;;12.63;40.57;100774.59;4853849;28;119887;-91
2022/03/29 10:17:07;;;;;;;14.70;2.78;;;;;;;12.41;39.44;100741.00;4829645;28;119705;-92
2022/03/29 10:19:41;;;;;;;12.93;2.60;;;;;;;12.82;40.14;100789.84;4819441;28;122890;-92
2022/03/29 10:22:12;;;;;;;7.15;2.28;;;;;;;12.43;40.06;100728.31;4839522;28;119500;-90
2022/03/29 10:24:38;;;;;;;12.13;2.72;;;;;;;12.86;40.23;100801.44;4834775;28;122188;-90
2022/03/29 10:27:04;;;;;;;11.43;2.50;;;;;;;12.70;41.19;100754.22;4834312;28;123734;-90
2022/03/29 10:29:35;;;;;;;14.95;3.22;;;;;;;12.83;40.91;100765.84;4809223;28;119696;-91
2022/03/29 10:32:06;;;;;;;10.68;2.88;;;;;;;12.59;39.86;100713.47;4826835;28;121957;-90
2022/03/29 10:34:48;;;;;;;15.77;2.90;;;;;;;12.84;41.42;100748.84;4840543;28;123161;-89
2022/03/29 10:37:21;;;;;;;12.15;2.60;;;;;;;12.63;41.65;100708.53;4833922;28;119689;-93
2022/03/29 10:39:54;;;;;;;12.70;2.67;;;;;;;13.13;43.00;100772.28;4829878;28;120759;-91
2022/03/29 10:42:37;;;;;;;13.98;3.20;;;;;;;12.95;40.29;100733.81;4840402;28;119827;-90
2022/03/29 10:45:19;;;;;;;10.07;2.60;;;;;;;13.23;40.07;100771.03;4824617;28;120056;-90
2022/03/29 10:48:05;;;;;;;12.82;2.63;;;;;;;13.20;38.69;100766.47;4812324;28;123689;-90
2022/03/29 10:50:56;;;;;;;20.48;3.60;;;;;;;13.29;39.37;100773.94;4819022;28;119743;-91
2022/03/29 10:53:21;;;;;;;13.40;3.10;;;;;;;13.37;39.90;100775.88;4802035;28;121234;-90
2022/03/29 10:56:13;;;;;;;10.18;2.13;;;;;;;13.41;36.21;100770.97;4814564;29;123000;-91
2022/03/29 10:59:04;;;;;;;12.23;2.30;;;;;;;13.46;36.61;100770.31;4819618;28;121423;-93
2022/03/29 11:01:30;;;;;;;14.48;3.20;;;;;;;13.43;37.87;100746.44;4807245;28;122524;-90
2022/03/29 11:04:23;;;;;;;12.55;3.40;;;;;;;13.50;37.65;100746.13;4831326;28;119608;-93
2022/03/29 11:07:07;;;;;;;9.52;2.88;;;;;;;13.65;37.79;100756.44;4788838;29;121987;-89
2022/03/29 11:09:34;;;;;;;11.40;2.40;;;;;;;13.61;37.18;100745.59;4833221;28;122144;-90
2022/03/29 11:12:00;;;;;;;11.10;2.40;;;;;;;13.60;36.41;100746.06;4833597;29;122205;-93
2022/03/29 11:14:30;;;;;;;15.18;2.47;;;;;;;13.67;36.82;100748.44;4803553;29;123939;-93
2022/03/29 11:17:18;;;;;;;10.45;3.50;;;;;;;13.51;36.22;100709.06;4801996;29;122269;-93
2022/03/29 11:19:48;;;;;;;10.55;2.92;;;;;;;13.90;36.59;100741.41;4813834;29;120044;-90
2022/03/29 11:22:29;;;;;;;14.77;3.78;;;;;;;14.07;36.94;100746.00;4802533;29;122453;-91
2022/03/29 11:24:58;;;;;;;18.80;7.10;;;;;;;14.16;36.67;100736.13;4790803;29;122987;-91
2022/03/29 11:27:26;;;;;;;11.00;3.25;;;;;;;14.39;37.08;100740.81;4803601;28;122806;-91
2022/03/29 11:29:53;;;;;;;13.15;2.63;;;;;;;14.46;37.46;100736.97;4788245;29;123177;-94
2022/03/29 11:32:19;;;;;;;14.23;2.47;;;;;;;14.50;37.11;100735.53;4819790;28;119578;-92
2022/03/29 11:34:45;;;;;;;10.20;3.58;;;;;;;14.58;37.67;100750.47;4817413;29;122324;-93
2022/03/29 11:37:43;;;;;;;9.43;2.40;;;;;;;14.56;35.64;100739.13;4830974;28;122968;-91
2022/03/29 11:40:12;;;;;;;8.38;2.33;;;;;;;14.47;35.18;100735.72;4799049;28;119720;-92
2022/03/29 11:42:59;;;;;;;10.00;2.40;;;;;;;14.43;37.04;100736.69;4805148;28;122782;-93
2022/03/29 11:45:29;;;;;;;12.60;3.10;;;;;;;14.46;36.42;100729.44;4803655;28;123136;-93
2022/03/29 11:47:57;;;;;;;13.63;3.25;;;;;;;14.47;36.58;100736.47;4789678;28;121988;-92
2022/03/29 11:50:29;;;;;;;14.73;3.38;;;;;;;14.50;37.05;100727.25;4790466;28;122163;-91
2022/03/29 11:52:54;;;;;;;17.25;3.10;;;;;;;14.39;36.81;100727.00;4816916;28;119922;-94
2022/03/29 11:55:20;;;;;;;12.18;2.85;;;;;;;14.31;36.53;100718.34;4808814;28;122283;-93
2022/03/29 11:57:46;;;;;;;10.65;2.80;;;;;;;14.41;36.48;100730.81;4819641;28;123128;-93
2022/03/29 12:00:24;;;;;;;16.70;3.70;;;;;;;14.33;36.31;100724.16;4822016;28;119775;-91
2022/03/29 12:02:52;;;;;;;11.85;2.50;;;;;;;14.33;35.31;100731.69;4821417;28;120798;-93
2022/03/29 12:05:25;;;;;;;14.30;2.50;;;;;;;14.12;36.84;100708.72;4821380;28;123900;-94
2022/03/29 12:07:58;;;;;;;;;;;;;;;14.18;36.73;100730.88;4836929;28;121653;-92
2022/03/29 12:10:34;;;;;;;9.75;2.30;;;;;;;14.17;36.00;100729.38;4825052;28;120908;-93
2022/03/29 12:13:03;;;;;;;15.07;3.30;;;;;;;14.09;36.41;100715.97;4835680;28;119805;-92
2022/03/29 12:15:29;;;;;;;13.18;2.85;;;;;;;14.03;38.72;100708.81;4819510;28;122765;-93
2022/03/29 12:18:40;;;;;;;14.68;3.03;;;;;;;14.09;37.30;100713.19;4820120;28;120098;-91
2022/03/29 12:20:44;;;;;;;13.80;3.28;;;;;;;14.03;35.92;100709.59;4819846;28;120042;-91
2022/03/29 12:23:17;;;;;;;15.13;3.70;;;;;;;13.99;36.97;100706.25;4853140;28;120022;-94
2022/03/29 12:25:44;;;;;;;14.73;2.67;;;;;;;13.98;37.30;100707.50;4802811;28;123303;-92
2022/03/29 12:28:13;;;;;;;10.30;2.45;;;;;;;14.07;36.51;100703.88;4820262;28;119528;-91
2022/03/29 12:30:39;;;;;;;11.43;2.55;;;;;;;13.83;36.75;100662.56;4819946;28;121753;-93
2022/03/29 12:33:05;;;;;;;15.80;2.75;;;;;;;13.95;36.00;100686.34;4839340;28;120007;-91
2022/03/29 12:35:33;;;;;;;15.45;2.88;;;;;;;14.04;38.44;100691.78;4819202;28;122125;-90
2022/03/29 12:38:09;;;;;;;12.65;2.70;;;;;;;13.74;38.25;100632.34;4818383;28;122989;-92
2022/03/29 12:40:37;;;;;;;13.82;2.75;;;;;;;14.03;38.26;100682.00;4805300;28;120219;-93
2022/03/29 12:43:27;;;;;;;14.68;2.95;;;;;;;13.92;37.64;100664.47;4836371;28;122220;-93
2022/03/29 12:45:58;;;;;;;11.88;2.60;;;;;;;13.78;38.06;100646.69;4797758;28;122848;-92
2022/03/29 12:48:26;;;;;;;14.10;2.80;;;;;;;13.71;36.86;100633.25;4836189;28;120301;-93
2022/03/29 12:50:56;;;;;;;12.27;2.25;;;;;;;13.98;36.18;100677.16;4805654;28;121996;-93
2022/03/29 12:53:22;;;;;;;15.30;2.97;;;;;;;14.01;38.58;100683.72;4808786;28;121593;-92
2022/03/29 12:55:55;;;;;;;12.73;2.42;;;;;;;14.04;37.58;100677.25;4817758;28;119766;-92
2022/03/29 12:58:35;;;;;;;11.10;2.47;;;;;;;13.97;37.20;100670.13;4822708;28;120390;-94
2022/03/29 13:01:03;;;;;;;14.93;2.92;;;;;;;13.80;37.61;100653.25;4824932;28;122706;-92
2022/03/29 13:03:36;;;;;;;13.02;2.63;;;;;;;13.91;36.55;100665.72;4852319;28;121899;-92
2022/03/29 13:06:04;;;;;;;9.82;2.97;;;;;;;13.83;35.50;100662.56;4803639;28;123437;-91
2022/03/29 13:08:31;;;;;;;7.18;1.88;;;;;;;13.55;35.86;100631.72;4822625;28;119625;-92
2022/03/29 13:10:59;;;;;;;11.48;2.50;;;;;;;13.49;35.76;100625.34;4819958;29;122646;-91
2022/03/29 13:13:29;;;;;;;8.45;2.25;;;;;;;13.35;36.10;100596.53;4802311;28;122863;-92
2022/03/29 13:16:05;;;;;;;5.90;1.85;;;;;;;13.65;35.63;100635.16;4814426;28;120991;-93
2022/03/29 13:18:38;;;;;;;9.68;1.88;;;;;;;13.64;36.44;100625.38;4825152;28;123446;-90
2022/03/29 13:21:09;;;;;;;10.73;2.13;;;;;;;13.34;35.59;100600.50;4822311;29;119593;-92
2022/03/29 13:23:41;;;;;;;8.07;1.85;;;;;;;13.70;34.77;100656.53;4803548;29;122437;-94
2022/03/29 13:26:09;;;;;;;10.25;2.25;;;;;;;13.66;35.55;100639.44;4826253;28;123172;-92
2022/03/29 13:28:36;;;;;;;13.73;2.10;;;;;;;13.51;35.83;100626.41;4802639;28;120622;-92
2022/03/29 13:31:04;;;;;;;12.02;2.35;;;;;;;13.67;36.25;100643.72;4826363;28;120959;-92
2022/03/29 13:33:30;;;;;;;10.55;2.35;;;;;;;13.54;36.06;100632.97;4810682;28;123491;-94
2022/03/29 13:36:06;;;;;;;9.93;2.30;;;;;;;13.27;36.57;100609.13;4811269;29;119675;-93
2022/03/29 13:38:35;;;;;;;14.65;2.75;;;;;;;13.15;36.98;100590.81;4823976;28;122077;-92
2022/03/29 13:41:01;;;;;;;8.88;1.95;;;;;;;13.32;36.78;100625.00;4806905;28;119968;-93
2022/03/29 13:43:38;;;;;;;11.98;2.50;;;;;;;13.27;36.69;100611.91;4823862;28;122230;-92
2022/03/29 13:46:06;;;;;;;8.85;2.33;;;;;;;13.10;36.98;100599.75;4821291;28;120123;-94
2022/03/29 13:48:52;;;;;;;11.38;2.53;;;;;;;13.35;36.61;100642.59;4817533;28;120080;-93
2022/03/29 13:51:25;;;;;;;13.07;2.40;;;;;;;13.24;38.02;100610.06;4822828;28;122057;-92
2022/03/29 13:53:54;;;;;;;10.90;2.25;;;;;;;13.20;38.49;100606.72;4805310;28;121698;-93
2022/03/29 13:56:21;;;;;;;11.23;2.60;;;;;;;13.26;37.18;100609.63;4807283;28;120330;-92
2022/03/29 13:58:49;;;;;;;10.63;2.28;;;;;;;13.34;37.76;100614.28;4822810;28;122157;-93
2022/03/29 14:01:15;;;;;;;12.52;2.58;;;;;;;12.98;38.02;100557.44;4823988;28;121525;-91
2022/03/29 14:03:46;;;;;;;10.55;2.50;;;;;;;13.12;38.07;100583.50;4824175;28;119670;-92
2022/03/29 14:06:14;;;;;;;14.10;2.58;;;;;;;12.96;38.12;100561.88;4822178;28;121475;-92
2022/03/29 14:08:39;;;;;;;12.50;2.35;;;;;;;13.28;37.30;100620.91;4839081;28;119503;-92
2022/03/29 14:11:06;;;;;;;10.02;2.53;;;;;;;12.85;37.72;100551.41;4821757;28;122072;-92
2022/03/29 14:13:45;;;;;;;11.07;2.42;;;;;;;13.17;37.28;100589.16;4839338;28;120658;-92
2022/03/29 14:16:14;;;;;;;11.30;2.50;;;;;;;13.11;37.28;100574.47;4821747;28;119991;-93
2022/03/29 14:18:39;;;;;;;13.55;3.22;;;;;;;13.37;36.46;100607.81;4817934;28;120354;-91
2022/03/29 14:21:05;;;;;;;12.38;2.33;;;;;;;13.08;37.00;100563.66;4819564;28;120158;-93
2022/03/29 14:23:31;;;;;;;12.32;3.20;;;;;;;13.21;37.21;100584.22;4807776;28;120171;-93
2022/03/29 14:25:57;;;;;;;11.57;3.22;;;;;;;13.17;36.70;100580.88;4817274;28;123072;-93
2022/03/29 14:28:23;;;;;;;15.23;4.90;;;;;;;12.88;36.82;100542.97;4820485;28;119794;-91
2022/03/29 14:30:52;;;;;;;27.10;9.88;;;;;;;13.14;36.94;100583.78;4819449;28;122721;-91
2022/03/29 14:33:18;;;;;;;20.38;6.88;;;;;;;13.00;37.31;100559.72;4802677;28;122822;-92
2022/03/29 14:35:52;;;;;;;22.00;7.07;;;;;;;13.28;37.19;100604.38;4803958;28;120279;-92
2022/03/29 14:38:18;;;;;;;13.23;3.00;;;;;;;13.10;37.84;100583.22;4834624;28;122253;-90
2022/03/29 14:40:47;;;;;;;12.32;2.88;;;;;;;13.11;37.16;100568.22;4802653;28;123053;-93
2022/03/29 14:43:18;;;;;;;12.77;2.58;;;;;;;13.00;37.72;100562.47;4804384;28;121793;-93
2022/03/29 14:45:44;;;;;;;14.88;2.92;;;;;;;13.08;38.46;100580.94;4823088;28;122080;-93
2022/03/29 14:48:10;;;;;;;16.23;3.58;;;;;;;13.08;37.33;100560.91;4821907;28;121243;-94
2022/03/29 14:50:36;;;;;;;14.52;3.17;;;;;;;12.97;38.36;100535.88;4809995;28;121965;-93
2022/03/29 14:53:06;;;;;;;15.02;5.50;;;;;;;13.18;37.74;100568.63;4829281;28;122564;-93
2022/03/29 14:55:41;;;;;;;26.33;10.18;;;;;;;13.16;37.12;100562.81;4816916;28;120925;-93
2022/03/29 14:58:09;;;;;;;9.68;2.97;;;;;;;12.89;37.63;100524.47;4822683;28;121925;-93
2022/03/29 15:00:53;;;;;;;27.75;14.25;;;;;;;13.12;37.25;100566.97;4850550;23;122750;-93
2022/03/29 15:03:21;;;;;;;13.63;6.32;;;;;;;13.08;37.19;100566.41;4825530;28;120650;-92
2022/03/29 15:05:51;;;;;;;15.32;3.78;;;;;;;12.82;37.56;100519.31;4797950;28;121723;-91
2022/03/29 15:08:40;;;;;;;15.80;2.97;;;;;;;13.04;38.16;100554.81;4827393;28;121011;-92
2022/03/29 15:11:08;;;;;;;14.23;3.13;;;;;;;12.86;37.17;100512.41;4809173;28;120884;-93
2022/03/29 15:13:37;;;;;;;10.38;2.47;;;;;;;13.06;37.04;100538.59;4789878;28;121897;-92
2022/03/29 15:16:04;;;;;;;11.27;2.55;;;;;;;13.12;38.44;100536.69;4814055;28;119521;-91
2022/03/29 15:18:31;;;;;;;9.82;2.20;;;;;;;13.06;37.67;100542.09;4818457;28;121880;-92
2022/03/29 15:21:00;;;;;;;5.97;1.80;;;;;;;12.94;36.97;100523.81;4804987;28;122631;-92
2022/03/29 15:23:28;;;;;;;6.90;2.20;;;;;;;13.06;37.10;100536.59;4803153;28;119699;-92
2022/03/29 15:25:56;;;;;;;9.18;2.30;;;;;;;12.99;37.88;100522.41;4816375;28;119703;-94
2022/03/29 15:28:30;;;;;;;10.70;2.30;;;;;;;12.75;37.23;100497.66;4807942;28;123168;-91
2022/03/29 15:30:56;;;;;;;11.50;2.05;;;;;;;13.10;36.83;100548.19;4805630;28;121761;-92
2022/03/29 15:33:25;;;;;;;9.07;2.30;;;;;;;12.77;37.12;100500.69;4816417;28;122917;-92
2022/03/29 15:35:53;;;;;;;10.50;2.05;;;;;;;12.75;36.55;100503.16;4784792;28;120059;-92
2022/03/29 15:38:19;;;;;;;13.20;2.28;;;;;;;12.89;36.55;100527.97;4801654;28;121913;-91
2022/03/29 15:40:45;;;;;;;10.23;2.33;;;;;;;12.77;36.36;100519.94;4801146;28;122548;-91
2022/03/29 15:43:14;;;;;;;7.38;1.85;;;;;;;12.53;37.49;100487.69;4797564;28;119780;-92
2022/03/29 15:45:43;;;;;;;14.65;2.10;;;;;;;12.67;36.89;100505.50;4784240;28;121043;-91
2022/03/29 15:48:19;;;;;;;9.10;1.92;;;;;;;12.83;36.50;100534.63;4791710;28;122750;-93
2022/03/29 15:50:46;;;;;;;10.88;1.92;;;;;;;12.87;37.01;100546.97;4807164;28;121422;-92
2022/03/29 15:53:13;;;;;;;11.65;2.30;;;;;;;12.43;36.95;100489.00;4800751;28;121910;-91
2022/03/29 15:55:46;;;;;;;8.70;2.10;;;;;;;12.39;36.77;100493.16;4801153;28;119495;-92
2022/03/29 15:58:19;;;;;;;12.38;2.30;;;;;;;12.77;36.68;100564.75;4816125;28;121652;-91
2022/03/29 16:00:45;;;;;;;8.60;2.10;;;;;;;12.48;36.84;100526.09;4800324;28;122860;-89
2022/03/29 16:03:11;;;;;;;10.45;2.25;;;;;;;12.16;37.32;100500.91;4815254;28;119761;-90
2022/03/29 16:05:39;;;;;;;8.75;2.03;;;;;;;12.35;37.54;100525.56;4800977;28;120777;-92
2022/03/29 16:08:04;;;;;;;10.32;2.50;;;;;;;12.28;37.44;100523.91;4833126;28;123378;-91
2022/03/29 16:10:30;;;;;;;9.43;2.20;;;;;;;12.16;38.56;100506.41;4820552;28;120197;-91
2022/03/29 16:13:01;;;;;;;10.75;2.15;;;;;;;12.24;37.90;100523.31;4819420;28;121973;-90
2022/03/29 16:15:27;;;;;;;10.90;1.90;;;;;;;11.89;37.68;100477.03;4817233;28;119637;-90
2022/03/29 16:17:53;;;;;;;10.75;1.95;;;;;;;11.95;37.92;100490.91;4816384;28;120652;-91
2022/03/29 16:20:22;;;;;;;11.95;2.10;;;;;;;11.99;38.61;100499.75;4803420;28;120249;-93
2022/03/29 16:22:52;;;;;;;11.30;2.17;;;;;;;12.03;38.67;100505.81;4808699;28;120618;-91
2022/03/29 16:25:20;;;;;;;9.77;2.22;;;;;;;12.10;39.04;100543.25;4791653;28;122165;-91
2022/03/29 16:27:46;;;;;;;11.65;2.25;;;;;;;12.14;39.20;100552.84;4816671;28;123975;-91
2022/03/29 16:30:18;;;;;;;11.90;2.40;;;;;;;11.81;39.21;100502.53;4800113;28;119595;-92
2022/03/29 16:32:44;;;;;;;9.20;2.17;;;;;;;11.74;39.21;100500.84;4800825;28;121637;-92
2022/03/29 16:35:12;;;;;;;10.05;2.40;;;;;;;11.79;39.29;100514.00;4807908;28;121447;-90
2022/03/29 16:37:38;;;;;;;17.25;3.10;;;;;;;11.57;39.74;100480.44;4797158;28;122205;-91
2022/03/29 16:40:07;;;;;;;11.70;2.70;;;;;;;11.55;39.92;100480.91;4801238;28;122954;-91
2022/03/29 16:42:34;;;;;;;11.10;2.20;;;;;;;11.59;39.26;100488.97;4814506;28;119691;-92
2022/03/29 16:45:06;;;;;;;13.25;2.45;;;;;;;11.78;39.69;100530.91;4801893;28;122272;-90
2022/03/29 16:47:31;;;;;;;10.38;2.00;;;;;;;11.38;39.65;100474.25;4802101;28;122593;-91
2022/03/29 16:49:59;;;;;;;11.77;2.33;;;;;;;11.56;39.33;100511.88;4815607;28;120559;-90
2022/03/29 16:52:29;;;;;;;10.48;2.13;;;;;;;11.62;39.59;100532.03;4804757;28;121060;-89
2022/03/29 16:54:54;;;;;;;9.30;1.98;;;;;;;11.44;40.11;100507.34;4805431;28;124859;-92
2022/03/29 16:57:20;;;;;;;9.77;1.90;;;;;;;11.51;39.69;100518.78;4802503;28;119952;-90
2022/03/29 16:59:52;;;;;;;11.65;2.35;;;;;;;11.69;39.71;100557.19;4815367;28;120461;-90
2022/03/29 17:02:20;;;;;;;15.93;2.53;;;;;;;11.60;40.08;100539.97;4786057;28;122014;-90
2022/03/29 17:04:48;;;;;;;9.55;2.30;;;;;;;11.28;40.28;100500.94;4800777;28;122040;-91
2022/03/29 17:07:24;;;;;;;9.52;2.40;;;;;;;11.61;40.42;100545.00;4786370;28;123440;-90
2022/03/29 17:09:51;;;;;;;7.47;2.20;;;;;;;11.65;40.01;100551.13;4815553;28;119854;-89
2022/03/29 17:12:22;;;;;;;9.75;2.30;;;;;;;11.15;40.24;100483.13;4800461;28;121922;-90
2022/03/29 17:14:55;;;;;;;9.65;2.47;;;;;;;11.24;39.91;100499.56;4815859;28;121486;-91
2022/03/29 17:17:21;;;;;;;10.77;2.20;;;;;;;11.07;40.57;100485.41;4815069;28;120187;-91
2022/03/29 17:19:48;;;;;;;11.27;2.45;;;;;;;11.16;40.30;100503.88;4818894;28;122040;-90
2022/03/29 17:22:24;;;;;;;11.88;2.53;;;;;;;11.12;40.86;100503.22;4802260;28;122000;-90
2022/03/29 17:24:57;;;;;;;9.10;2.17;;;;;;;10.98;40.75;100483.44;4816299;28;119860;-89
2022/03/29 17:27:23;;;;;;;9.32;2.13;;;;;;;11.15;40.68;100516.81;4816679;28;120402;-89
2022/03/29 17:30:11;;;;;;;9.65;2.22;;;;;;;10.89;40.53;100491.66;4793217;28;120337;-90
2022/03/29 17:32:37;;;;;;;14.00;2.90;;;;;;;11.15;41.19;100538.78;4800339;28;122042;-88
2022/03/29 17:35:14;;;;;;;14.60;4.50;;;;;;;10.95;41.45;100511.03;4801515;28;123081;-90
2022/03/29 17:37:44;;;;;;;15.85;3.08;;;;;;;11.15;41.55;100557.25;4801672;28;120162;-92
2022/03/29 17:40:10;;;;;;;10.57;2.95;;;;;;;10.76;42.22;100499.25;4805355;28;119803;-91
2022/03/29 17:42:41;;;;;;;11.77;2.38;;;;;;;10.86;42.18;100511.00;4801132;28;121524;-91
2022/03/29 17:45:14;;;;;;;10.45;2.20;;;;;;;11.23;42.33;100575.69;4789628;28;123451;-92
2022/03/29 17:47:43;;;;;;;9.43;2.30;;;;;;;10.81;42.90;100520.59;4804148;28;122917;-92
2022/03/29 17:50:10;;;;;;;10.98;2.78;;;;;;;11.13;42.60;100559.69;4800939;28;119571;-91
2022/03/29 17:52:46;;;;;;;;;;;;;;;11.11;42.86;100565.59;4801583;28;122341;-91
2022/03/29 17:55:35;;;;;;;;;;;;;;;;;;;;;
2022/03/29 17:58:16;;;;;;;12.60;2.55;;;;;;;10.71;43.46;100519.84;4804081;28;119719;-90
2022/03/29 18:00:44;;;;;;;13.40;2.38;;;;;;;10.79;43.18;100525.03;4800237;28;120836;-90
2022/03/29 18:03:09;;;;;;;10.65;2.35;;;;;;;10.58;43.58;100499.22;4790148;28;122740;-91
2022/03/29 18:05:35;;;;;;;13.60;2.78;;;;;;;10.62;43.62;100508.84;4788067;28;121025;-91
2022/03/29 18:08:04;;;;;;;10.57;2.58;;;;;;;10.51;43.81;100494.03;4816109;28;123028;-91
2022/03/29 18:10:29;;;;;;;10.40;2.88;;;;;;;10.39;44.48;100476.47;4801226;28;120018;-90
2022/03/29 18:12:55;;;;;;;13.75;2.53;;;;;;;10.58;44.75;100516.44;4800729;28;121625;-90
2022/03/29 18:15:21;;;;;;;11.93;2.60;;;;;;;10.78;44.50;100546.22;4786021;28;122905;-91
2022/03/29 18:17:47;;;;;;;12.60;2.78;;;;;;;10.49;44.66;100507.44;4816565;28;119939;-90
2022/03/29 18:20:25;;;;;;;12.95;2.90;;;;;;;10.40;44.78;100497.19;4789868;28;122233;-90
2022/03/29 18:22:57;;;;;;;16.85;3.08;;;;;;;10.53;45.26;100514.31;4789757;28;121754;-90
2022/03/29 18:25:28;;;;;;;;;;;;;;;10.74;45.14;100565.56;4805638;28;120100;-91
2022/03/29 18:27:55;;;;;;;16.33;2.85;;;;;;;10.58;45.43;100543.88;4800897;28;122854;-91
2022/03/29 18:30:23;;;;;;;11.90;2.53;;;;;;;10.38;45.44;100516.84;4801743;28;119611;-90
2022/03/29 18:32:53;;;;;;;10.98;2.88;;;;;;;10.66;45.46;100558.09;4802391;28;122011;-90
2022/03/29 18:35:27;;;;;;;10.20;2.63;;;;;;;10.34;45.92;100512.72;4817715;28;122437;-90
2022/03/29 18:37:53;;;;;;;11.63;2.63;;;;;;;10.28;45.92;100509.06;4818757;28;119528;-90
2022/03/29 18:40:27;;;;;;;15.07;2.30;;;;;;;10.02;46.07;100478.34;4817535;28;122088;-89
2022/03/29 18:42:55;;;;;;;12.05;2.50;;;;;;;10.51;46.62;100548.88;4809534;28;121101;-89
2022/03/29 18:45:21;;;;;;;14.02;2.17;;;;;;;9.98;46.58;100480.47;4814854;28;118600;-90
2022/03/29 18:50:57;;;;;;;11.18;2.03;;;;;;;10.34;46.73;100537.41;5061015;23;120709;-91
2022/03/29 18:53:27;;;;;;;11.00;2.65;;;;;;;10.31;46.68;100533.59;4831721;28;122047;-91
2022/03/29 18:56:08;;;;;;;11.55;2.35;;;;;;;10.09;47.21;100500.72;4828815;28;122467;-89
2022/03/29 18:58:36;;;;;;;14.07;3.40;;;;;;;10.28;47.23;100526.28;4823830;28;118589;-89
2022/03/29 19:01:10;;;;;;;10.07;2.53;;;;;;;10.00;46.68;100483.50;4840732;28;119404;-91
2022/03/29 19:03:46;;;;;;;12.75;2.83;;;;;;;10.09;47.15;100503.47;4857656;28;123124;-88
2022/03/29 19:06:23;;;;;;;13.88;2.92;;;;;;;10.39;47.00;100554.03;4828059;28;119189;-90
2022/03/29 19:08:56;;;;;;;12.80;2.70;;;;;;;9.86;47.35;100462.88;4822463;28;120944;-88
2022/03/29 19:11:40;;;;;;;;;;;;;;;;;;;;;
2022/03/29 19:14:19;;;;;;;7.63;2.38;;;;;;;10.12;47.39;100521.75;4853793;28;121717;-90
2022/03/29 19:16:56;;;;;;;9.65;2.55;;;;;;;10.36;47.84;100546.69;4823699;28;122832;-90
2022/03/29 19:19:29;;;;;;;13.77;2.92;;;;;;;9.85;47.46;100473.09;4837859;28;118479;-89
2022/03/29 19:21:58;;;;;;;12.27;2.58;;;;;;;9.96;47.34;100491.09;4831137;28;120242;-89